sensor_id;sensor_type;location;lat;lon;timestamp;temperature;humidity
8422;DHT22;4248;48.196;10.924;2023-05-01T00:00:11;10.30;37.00
8422;DHT22;4248;48.196;10.924;2023-05-01T00:02:37;10.20;37.00
8422;DHT22;4248;48.196;10.924;2023-05-01T00:05:02;10.20;37.10
8422;DHT22;4248;48.196;10.924;2023-05-01T00:07:28;10.20;37.30
8422;DHT22;4248;48.196;10.924;2023-05-01T00:09:56;10.10;37.30
8422;DHT22;4248;48.196;10.924;2023-05-01T00:12:22;10.10;37.30
8422;DHT22;4248;48.196;10.924;2023-05-01T00:14:48;10.10;37.50
8422;DHT22;4248;48.196;10.924;2023-05-01T00:17:14;10.10;37.30
8422;DHT22;4248;48.196;10.924;2023-05-01T00:19:39;10.20;37.20
8422;DHT22;4248;48.196;10.924;2023-05-01T00:22:06;10.10;37.30
8422;DHT22;4248;48.196;10.924;2023-05-01T00:24:32;10.10;37.60
8422;DHT22;4248;48.196;10.924;2023-05-01T00:26:58;10.00;37.70
8422;DHT22;4248;48.196;10.924;2023-05-01T00:29:24;10.00;37.70
8422;DHT22;4248;48.196;10.924;2023-05-01T00:31:49;10.00;37.70
8422;DHT22;4248;48.196;10.924;2023-05-01T00:34:15;10.00;37.70
8422;DHT22;4248;48.196;10.924;2023-05-01T00:36:41;10.00;37.70
8422;DHT22;4248;48.196;10.924;2023-05-01T00:39:07;9.90;38.90
8422;DHT22;4248;48.196;10.924;2023-05-01T00:41:33;9.90;38.90
8422;DHT22;4248;48.196;10.924;2023-05-01T00:43:59;9.90;39.10
8422;DHT22;4248;48.196;10.924;2023-05-01T00:46:25;9.90;39.30
8422;DHT22;4248;48.196;10.924;2023-05-01T00:48:51;9.80;39.20
8422;DHT22;4248;48.196;10.924;2023-05-01T00:51:17;9.80;39.20
8422;DHT22;4248;48.196;10.924;2023-05-01T00:53:44;9.70;39.20
8422;DHT22;4248;48.196;10.924;2023-05-01T00:56:10;9.60;39.60
8422;DHT22;4248;48.196;10.924;2023-05-01T00:58:37;9.50;40.00
8422;DHT22;4248;48.196;10.924;2023-05-01T01:01:03;9.40;40.50
8422;DHT22;4248;48.196;10.924;2023-05-01T01:03:29;9.30;41.00
8422;DHT22;4248;48.196;10.924;2023-05-01T01:06:16;9.30;41.10
8422;DHT22;4248;48.196;10.924;2023-05-01T01:12:19;9.20;41.60
8422;DHT22;4248;48.196;10.924;2023-05-01T01:14:56;9.10;41.70
8422;DHT22;4248;48.196;10.924;2023-05-01T01:17:29;9.10;41.70
8422;DHT22;4248;48.196;10.924;2023-05-01T01:22:40;9.00;42.10
8422;DHT22;4248;48.196;10.924;2023-05-01T01:34:32;8.90;42.20
8422;DHT22;4248;48.196;10.924;2023-05-01T01:36:48;8.90;42.40
8422;DHT22;4248;48.196;10.924;2023-05-01T01:39:32;8.90;42.20
8422;DHT22;4248;48.196;10.924;2023-05-01T01:42:05;8.90;42.20
8422;DHT22;4248;48.196;10.924;2023-05-01T01:44:38;8.90;42.20
8422;DHT22;4248;48.196;10.924;2023-05-01T01:47:05;8.90;42.30
8422;DHT22;4248;48.196;10.924;2023-05-01T01:49:33;8.90;42.50
8422;DHT22;4248;48.196;10.924;2023-05-01T01:52:02;8.90;43.30
8422;DHT22;4248;48.196;10.924;2023-05-01T01:54:34;8.80;42.80
8422;DHT22;4248;48.196;10.924;2023-05-01T01:57:02;8.80;42.80
8422;DHT22;4248;48.196;10.924;2023-05-01T01:59:33;8.80;42.90
8422;DHT22;4248;48.196;10.924;2023-05-01T02:01:59;8.80;43.10
8422;DHT22;4248;48.196;10.924;2023-05-01T02:04:27;8.80;43.00
8422;DHT22;4248;48.196;10.924;2023-05-01T02:06:55;8.80;43.10
8422;DHT22;4248;48.196;10.924;2023-05-01T02:09:23;8.80;43.00
8422;DHT22;4248;48.196;10.924;2023-05-01T02:11:53;8.80;43.00
8422;DHT22;4248;48.196;10.924;2023-05-01T02:14:21;8.80;43.30
8422;DHT22;4248;48.196;10.924;2023-05-01T02:16:49;8.70;43.20
8422;DHT22;4248;48.196;10.924;2023-05-01T02:19:15;8.70;43.30
8422;DHT22;4248;48.196;10.924;2023-05-01T02:21:42;8.70;43.40
8422;DHT22;4248;48.196;10.924;2023-05-01T02:24:09;8.70;43.60
8422;DHT22;4248;48.196;10.924;2023-05-01T02:26:42;8.60;43.70
8422;DHT22;4248;48.196;10.924;2023-05-01T02:29:09;8.60;43.70
8422;DHT22;4248;48.196;10.924;2023-05-01T02:31:35;8.60;43.80
8422;DHT22;4248;48.196;10.924;2023-05-01T02:34:01;8.70;43.80
8422;DHT22;4248;48.196;10.924;2023-05-01T02:36:26;8.60;43.60
8422;DHT22;4248;48.196;10.924;2023-05-01T02:38:53;8.60;43.60
8422;DHT22;4248;48.196;10.924;2023-05-01T02:41:20;8.60;43.50
8422;DHT22;4248;48.196;10.924;2023-05-01T02:43:50;8.70;43.60
8422;DHT22;4248;48.196;10.924;2023-05-01T02:46:18;8.70;43.40
8422;DHT22;4248;48.196;10.924;2023-05-01T02:48:45;8.70;43.50
8422;DHT22;4248;48.196;10.924;2023-05-01T02:51:12;8.70;43.50
8422;DHT22;4248;48.196;10.924;2023-05-01T02:53:38;8.70;43.30
8422;DHT22;4248;48.196;10.924;2023-05-01T02:56:04;8.70;43.30
8422;DHT22;4248;48.196;10.924;2023-05-01T02:58:32;8.70;43.30
8422;DHT22;4248;48.196;10.924;2023-05-01T03:00:58;8.60;43.40
8422;DHT22;4248;48.196;10.924;2023-05-01T03:03:24;8.50;43.60
8422;DHT22;4248;48.196;10.924;2023-05-01T03:05:49;8.40;43.90
8422;DHT22;4248;48.196;10.924;2023-05-01T03:08:16;8.40;44.30
8422;DHT22;4248;48.196;10.924;2023-05-01T03:10:42;8.30;45.00
8422;DHT22;4248;48.196;10.924;2023-05-01T03:13:08;8.30;44.70
8422;DHT22;4248;48.196;10.924;2023-05-01T03:15:35;8.30;44.60
8422;DHT22;4248;48.196;10.924;2023-05-01T03:18:01;8.40;44.60
8422;DHT22;4248;48.196;10.924;2023-05-01T03:20:26;8.40;44.60
8422;DHT22;4248;48.196;10.924;2023-05-01T03:22:52;8.40;44.70
8422;DHT22;4248;48.196;10.924;2023-05-01T03:25:17;8.30;44.80
8422;DHT22;4248;48.196;10.924;2023-05-01T03:27:43;8.30;45.00
8422;DHT22;4248;48.196;10.924;2023-05-01T03:30:09;8.30;45.00
8422;DHT22;4248;48.196;10.924;2023-05-01T03:32:35;8.30;44.90
8422;DHT22;4248;48.196;10.924;2023-05-01T03:35:01;8.30;45.00
8422;DHT22;4248;48.196;10.924;2023-05-01T03:37:27;8.30;45.10
8422;DHT22;4248;48.196;10.924;2023-05-01T03:39:53;8.30;45.20
8422;DHT22;4248;48.196;10.924;2023-05-01T03:42:18;8.30;45.40
8422;DHT22;4248;48.196;10.924;2023-05-01T03:44:44;8.20;45.80
8422;DHT22;4248;48.196;10.924;2023-05-01T03:47:10;8.30;45.60
8422;DHT22;4248;48.196;10.924;2023-05-01T03:49:35;8.30;45.60
8422;DHT22;4248;48.196;10.924;2023-05-01T03:52:01;8.40;45.30
8422;DHT22;4248;48.196;10.924;2023-05-01T03:54:27;8.50;45.30
8422;DHT22;4248;48.196;10.924;2023-05-01T03:56:52;8.50;45.30
8422;DHT22;4248;48.196;10.924;2023-05-01T03:59:18;8.60;45.20
8422;DHT22;4248;48.196;10.924;2023-05-01T04:01:44;8.60;45.20
8422;DHT22;4248;48.196;10.924;2023-05-01T04:04:10;8.60;45.30
8422;DHT22;4248;48.196;10.924;2023-05-01T04:06:35;8.60;45.20
8422;DHT22;4248;48.196;10.924;2023-05-01T04:09:01;8.50;45.40
8422;DHT22;4248;48.196;10.924;2023-05-01T04:11:28;8.50;45.60
8422;DHT22;4248;48.196;10.924;2023-05-01T04:13:53;8.50;45.80
8422;DHT22;4248;48.196;10.924;2023-05-01T04:16:19;8.50;46.00
8422;DHT22;4248;48.196;10.924;2023-05-01T04:18:44;8.60;45.90
8422;DHT22;4248;48.196;10.924;2023-05-01T04:21:10;8.60;45.90
8422;DHT22;4248;48.196;10.924;2023-05-01T04:23:35;8.70;46.10
8422;DHT22;4248;48.196;10.924;2023-05-01T04:26:01;8.70;46.00
8422;DHT22;4248;48.196;10.924;2023-05-01T04:28:28;8.80;46.00
8422;DHT22;4248;48.196;10.924;2023-05-01T04:30:55;8.90;45.80
8422;DHT22;4248;48.196;10.924;2023-05-01T04:33:21;8.90;45.70
8422;DHT22;4248;48.196;10.924;2023-05-01T04:35:48;9.00;45.70
8422;DHT22;4248;48.196;10.924;2023-05-01T04:38:13;9.20;45.20
8422;DHT22;4248;48.196;10.924;2023-05-01T04:40:39;9.40;46.20
8422;DHT22;4248;48.196;10.924;2023-05-01T04:43:04;9.50;44.60
8422;DHT22;4248;48.196;10.924;2023-05-01T04:45:31;9.50;44.50
8422;DHT22;4248;48.196;10.924;2023-05-01T04:47:56;9.60;44.50
8422;DHT22;4248;48.196;10.924;2023-05-01T04:50:22;9.70;44.50
8422;DHT22;4248;48.196;10.924;2023-05-01T04:52:48;9.70;44.40
8422;DHT22;4248;48.196;10.924;2023-05-01T04:55:13;9.80;44.40
8422;DHT22;4248;48.196;10.924;2023-05-01T04:57:39;9.90;44.40
8422;DHT22;4248;48.196;10.924;2023-05-01T05:00:05;9.90;44.50
8422;DHT22;4248;48.196;10.924;2023-05-01T05:02:32;10.00;43.60
8422;DHT22;4248;48.196;10.924;2023-05-01T05:04:57;10.10;43.60
8422;DHT22;4248;48.196;10.924;2023-05-01T05:07:23;10.10;43.80
8422;DHT22;4248;48.196;10.924;2023-05-01T05:09:49;10.10;44.00
8422;DHT22;4248;48.196;10.924;2023-05-01T05:12:14;10.10;44.00
8422;DHT22;4248;48.196;10.924;2023-05-01T05:14:41;10.10;44.10
8422;DHT22;4248;48.196;10.924;2023-05-01T05:17:10;10.20;44.10
8422;DHT22;4248;48.196;10.924;2023-05-01T05:19:36;10.20;44.20
8422;DHT22;4248;48.196;10.924;2023-05-01T05:22:02;10.20;44.30
8422;DHT22;4248;48.196;10.924;2023-05-01T05:24:28;10.20;44.50
8422;DHT22;4248;48.196;10.924;2023-05-01T05:26:53;10.20;44.10
8422;DHT22;4248;48.196;10.924;2023-05-01T05:29:20;10.40;44.00
8422;DHT22;4248;48.196;10.924;2023-05-01T05:31:46;10.40;43.60
8422;DHT22;4248;48.196;10.924;2023-05-01T05:34:12;10.50;43.60
8422;DHT22;4248;48.196;10.924;2023-05-01T05:36:37;10.50;43.50
8422;DHT22;4248;48.196;10.924;2023-05-01T05:39:03;10.50;44.90
8422;DHT22;4248;48.196;10.924;2023-05-01T05:41:29;10.60;43.60
8422;DHT22;4248;48.196;10.924;2023-05-01T05:43:54;10.50;44.00
8422;DHT22;4248;48.196;10.924;2023-05-01T05:46:20;10.50;44.10
8422;DHT22;4248;48.196;10.924;2023-05-01T05:48:46;10.40;43.90
8422;DHT22;4248;48.196;10.924;2023-05-01T05:51:11;10.50;43.80
8422;DHT22;4248;48.196;10.924;2023-05-01T05:53:37;10.60;43.30
8422;DHT22;4248;48.196;10.924;2023-05-01T05:56:02;10.60;43.20
8422;DHT22;4248;48.196;10.924;2023-05-01T05:58:29;10.60;43.20
8422;DHT22;4248;48.196;10.924;2023-05-01T06:00:54;10.60;43.10
8422;DHT22;4248;48.196;10.924;2023-05-01T06:03:20;10.50;43.10
8422;DHT22;4248;48.196;10.924;2023-05-01T06:05:46;10.60;43.20
8422;DHT22;4248;48.196;10.924;2023-05-01T06:08:11;10.60;42.90
8422;DHT22;4248;48.196;10.924;2023-05-01T06:10:40;10.70;42.90
8422;DHT22;4248;48.196;10.924;2023-05-01T06:13:06;10.70;42.90
8422;DHT22;4248;48.196;10.924;2023-05-01T06:15:33;10.60;43.10
8422;DHT22;4248;48.196;10.924;2023-05-01T06:17:59;10.60;43.30
8422;DHT22;4248;48.196;10.924;2023-05-01T06:20:25;10.50;43.40
8422;DHT22;4248;48.196;10.924;2023-05-01T06:22:50;10.50;43.40
8422;DHT22;4248;48.196;10.924;2023-05-01T06:25:16;10.60;43.40
8422;DHT22;4248;48.196;10.924;2023-05-01T06:27:42;10.60;43.20
8422;DHT22;4248;48.196;10.924;2023-05-01T06:30:08;10.50;43.50
8422;DHT22;4248;48.196;10.924;2023-05-01T06:32:34;10.40;43.80
8422;DHT22;4248;48.196;10.924;2023-05-01T06:34:59;10.40;44.00
8422;DHT22;4248;48.196;10.924;2023-05-01T06:37:25;10.40;43.90
8422;DHT22;4248;48.196;10.924;2023-05-01T06:39:51;10.30;44.20
8422;DHT22;4248;48.196;10.924;2023-05-01T06:42:16;10.30;44.10
8422;DHT22;4248;48.196;10.924;2023-05-01T06:44:42;10.40;44.00
8422;DHT22;4248;48.196;10.924;2023-05-01T06:47:08;10.30;44.20
8422;DHT22;4248;48.196;10.924;2023-05-01T06:49:34;10.30;44.10
8422;DHT22;4248;48.196;10.924;2023-05-01T06:52:00;10.50;43.70
8422;DHT22;4248;48.196;10.924;2023-05-01T06:54:25;10.70;43.30
8422;DHT22;4248;48.196;10.924;2023-05-01T06:56:54;10.80;42.80
8422;DHT22;4248;48.196;10.924;2023-05-01T06:59:19;10.90;42.70
8422;DHT22;4248;48.196;10.924;2023-05-01T07:01:45;11.00;42.50
8422;DHT22;4248;48.196;10.924;2023-05-01T07:04:11;11.20;42.50
8422;DHT22;4248;48.196;10.924;2023-05-01T07:06:36;11.30;42.20
8422;DHT22;4248;48.196;10.924;2023-05-01T07:09:03;11.30;42.30
8422;DHT22;4248;48.196;10.924;2023-05-01T07:11:29;11.30;42.30
8422;DHT22;4248;48.196;10.924;2023-05-01T07:13:55;11.30;42.20
8422;DHT22;4248;48.196;10.924;2023-05-01T07:16:20;11.40;41.90
8422;DHT22;4248;48.196;10.924;2023-05-01T07:18:46;11.50;41.60
8422;DHT22;4248;48.196;10.924;2023-05-01T07:21:12;11.60;41.40
8422;DHT22;4248;48.196;10.924;2023-05-01T07:23:38;11.80;41.30
8422;DHT22;4248;48.196;10.924;2023-05-01T07:26:03;11.90;41.00
8422;DHT22;4248;48.196;10.924;2023-05-01T07:28:30;12.00;40.30
8422;DHT22;4248;48.196;10.924;2023-05-01T07:30:56;12.20;40.40
8422;DHT22;4248;48.196;10.924;2023-05-01T07:33:22;12.20;40.50
8422;DHT22;4248;48.196;10.924;2023-05-01T07:35:47;12.30;40.50
8422;DHT22;4248;48.196;10.924;2023-05-01T07:38:15;12.30;40.50
8422;DHT22;4248;48.196;10.924;2023-05-01T07:40:40;12.20;40.50
8422;DHT22;4248;48.196;10.924;2023-05-01T07:43:06;12.20;40.50
8422;DHT22;4248;48.196;10.924;2023-05-01T07:45:35;12.30;40.50
8422;DHT22;4248;48.196;10.924;2023-05-01T07:48:01;12.40;40.60
8422;DHT22;4248;48.196;10.924;2023-05-01T07:50:29;12.40;40.60
8422;DHT22;4248;48.196;10.924;2023-05-01T07:52:55;12.50;40.70
8422;DHT22;4248;48.196;10.924;2023-05-01T07:55:22;12.60;40.80
8422;DHT22;4248;48.196;10.924;2023-05-01T07:57:48;12.60;40.70
8422;DHT22;4248;48.196;10.924;2023-05-01T08:00:13;12.60;40.50
8422;DHT22;4248;48.196;10.924;2023-05-01T08:02:39;12.70;40.60
8422;DHT22;4248;48.196;10.924;2023-05-01T08:05:05;12.80;41.00
8422;DHT22;4248;48.196;10.924;2023-05-01T08:07:31;12.90;41.10
8422;DHT22;4248;48.196;10.924;2023-05-01T08:09:57;12.90;40.50
8422;DHT22;4248;48.196;10.924;2023-05-01T08:12:24;12.90;41.00
8422;DHT22;4248;48.196;10.924;2023-05-01T08:14:51;12.90;40.70
8422;DHT22;4248;48.196;10.924;2023-05-01T08:17:16;13.00;41.20
8422;DHT22;4248;48.196;10.924;2023-05-01T08:19:42;13.20;41.30
8422;DHT22;4248;48.196;10.924;2023-05-01T08:22:07;13.00;41.10
8422;DHT22;4248;48.196;10.924;2023-05-01T08:24:33;13.00;41.20
8422;DHT22;4248;48.196;10.924;2023-05-01T08:26:59;13.00;41.10
8422;DHT22;4248;48.196;10.924;2023-05-01T08:29:25;13.10;41.30
8422;DHT22;4248;48.196;10.924;2023-05-01T08:31:50;13.10;41.30
8422;DHT22;4248;48.196;10.924;2023-05-01T08:34:16;13.10;41.40
8422;DHT22;4248;48.196;10.924;2023-05-01T08:36:42;13.10;41.30
8422;DHT22;4248;48.196;10.924;2023-05-01T08:39:07;13.20;41.40
8422;DHT22;4248;48.196;10.924;2023-05-01T08:41:33;13.20;41.30
8422;DHT22;4248;48.196;10.924;2023-05-01T08:44:00;13.30;41.40
8422;DHT22;4248;48.196;10.924;2023-05-01T08:46:42;13.30;41.50
8422;DHT22;4248;48.196;10.924;2023-05-01T08:49:11;13.30;41.40
8422;DHT22;4248;48.196;10.924;2023-05-01T08:51:37;13.30;41.40
8422;DHT22;4248;48.196;10.924;2023-05-01T08:54:05;13.30;41.50
8422;DHT22;4248;48.196;10.924;2023-05-01T08:56:35;13.30;41.50
8422;DHT22;4248;48.196;10.924;2023-05-01T08:59:03;13.40;41.50
8422;DHT22;4248;48.196;10.924;2023-05-01T09:01:30;13.40;41.60
8422;DHT22;4248;48.196;10.924;2023-05-01T09:03:57;13.40;41.50
8422;DHT22;4248;48.196;10.924;2023-05-01T09:06:27;13.50;41.60
8422;DHT22;4248;48.196;10.924;2023-05-01T09:08:53;13.40;41.60
8422;DHT22;4248;48.196;10.924;2023-05-01T09:11:21;13.60;41.70
8422;DHT22;4248;48.196;10.924;2023-05-01T09:13:47;13.80;41.90
8422;DHT22;4248;48.196;10.924;2023-05-01T09:16:13;13.90;41.10
8422;DHT22;4248;48.196;10.924;2023-05-01T09:18:39;14.00;41.00
8422;DHT22;4248;48.196;10.924;2023-05-01T09:21:05;14.10;40.90
8422;DHT22;4248;48.196;10.924;2023-05-01T09:23:31;14.00;41.10
8422;DHT22;4248;48.196;10.924;2023-05-01T09:25:58;14.00;41.10
8422;DHT22;4248;48.196;10.924;2023-05-01T09:28:54;14.10;41.30
8422;DHT22;4248;48.196;10.924;2023-05-01T09:31:26;14.20;40.90
8422;DHT22;4248;48.196;10.924;2023-05-01T09:36:28;14.40;40.80
8422;DHT22;4248;48.196;10.924;2023-05-01T09:38:58;14.40;40.50
8422;DHT22;4248;48.196;10.924;2023-05-01T09:41:28;14.40;40.90
8422;DHT22;4248;48.196;10.924;2023-05-01T09:43:57;14.20;41.40
8422;DHT22;4248;48.196;10.924;2023-05-01T09:46:24;14.30;41.60
8422;DHT22;4248;48.196;10.924;2023-05-01T09:49:01;14.40;41.50
8422;DHT22;4248;48.196;10.924;2023-05-01T09:51:31;14.50;41.30
8422;DHT22;4248;48.196;10.924;2023-05-01T09:53:59;14.60;41.20
8422;DHT22;4248;48.196;10.924;2023-05-01T09:56:29;14.80;41.00
8422;DHT22;4248;48.196;10.924;2023-05-01T09:58:57;14.70;40.90
8422;DHT22;4248;48.196;10.924;2023-05-01T10:01:41;14.70;40.90
8422;DHT22;4248;48.196;10.924;2023-05-01T10:04:07;14.90;40.70
8422;DHT22;4248;48.196;10.924;2023-05-01T10:06:34;15.00;40.40
8422;DHT22;4248;48.196;10.924;2023-05-01T10:09:02;15.00;40.50
8422;DHT22;4248;48.196;10.924;2023-05-01T10:11:28;15.00;40.60
8422;DHT22;4248;48.196;10.924;2023-05-01T10:14:07;14.90;41.00
8422;DHT22;4248;48.196;10.924;2023-05-01T10:16:35;14.90;40.50
8422;DHT22;4248;48.196;10.924;2023-05-01T10:19:01;15.00;40.20
8422;DHT22;4248;48.196;10.924;2023-05-01T10:21:27;15.10;40.20
8422;DHT22;4248;48.196;10.924;2023-05-01T10:23:54;15.30;39.90
8422;DHT22;4248;48.196;10.924;2023-05-01T10:26:20;15.20;39.90
8422;DHT22;4248;48.196;10.924;2023-05-01T10:28:47;15.10;40.10
8422;DHT22;4248;48.196;10.924;2023-05-01T10:31:14;15.00;40.40
8422;DHT22;4248;48.196;10.924;2023-05-01T10:33:42;15.10;40.40
8422;DHT22;4248;48.196;10.924;2023-05-01T10:36:16;15.10;40.20
8422;DHT22;4248;48.196;10.924;2023-05-01T10:38:43;15.20;39.90
8422;DHT22;4248;48.196;10.924;2023-05-01T10:41:13;15.40;39.50
8422;DHT22;4248;48.196;10.924;2023-05-01T10:43:39;15.50;39.40
8422;DHT22;4248;48.196;10.924;2023-05-01T10:51:18;15.70;39.10
8422;DHT22;4248;48.196;10.924;2023-05-01T10:53:46;15.60;39.20
8422;DHT22;4248;48.196;10.924;2023-05-01T11:03:55;15.70;39.30
8422;DHT22;4248;48.196;10.924;2023-05-01T11:06:21;15.60;39.60
8422;DHT22;4248;48.196;10.924;2023-05-01T11:08:47;15.70;39.20
8422;DHT22;4248;48.196;10.924;2023-05-01T11:14:04;15.70;39.20
8422;DHT22;4248;48.196;10.924;2023-05-01T11:16:42;15.50;39.50
8422;DHT22;4248;48.196;10.924;2023-05-01T11:19:43;15.40;39.60
8422;DHT22;4248;48.196;10.924;2023-05-01T11:21:58;15.60;39.20
8422;DHT22;4248;48.196;10.924;2023-05-01T11:24:31;15.70;39.00
8422;DHT22;4248;48.196;10.924;2023-05-01T11:27:00;16.00;38.30
8422;DHT22;4248;48.196;10.924;2023-05-01T11:29:30;16.30;37.70
8422;DHT22;4248;48.196;10.924;2023-05-01T11:31:59;16.20;37.70
8422;DHT22;4248;48.196;10.924;2023-05-01T11:34:25;16.30;37.40
8422;DHT22;4248;48.196;10.924;2023-05-01T11:36:51;16.50;37.40
8422;DHT22;4248;48.196;10.924;2023-05-01T11:39:18;16.30;37.60
8422;DHT22;4248;48.196;10.924;2023-05-01T11:41:44;16.40;37.20
8422;DHT22;4248;48.196;10.924;2023-05-01T11:44:15;16.60;37.20
8422;DHT22;4248;48.196;10.924;2023-05-01T11:46:41;16.70;36.80
8422;DHT22;4248;48.196;10.924;2023-05-01T11:49:06;16.90;36.30
8422;DHT22;4248;48.196;10.924;2023-05-01T11:51:33;16.80;36.40
8422;DHT22;4248;48.196;10.924;2023-05-01T11:54:06;16.80;36.40
8422;DHT22;4248;48.196;10.924;2023-05-01T11:56:33;16.70;36.60
8422;DHT22;4248;48.196;10.924;2023-05-01T11:59:08;16.30;37.00
8422;DHT22;4248;48.196;10.924;2023-05-01T12:01:35;16.20;37.80
8422;DHT22;4248;48.196;10.924;2023-05-01T12:04:02;16.20;37.80
8422;DHT22;4248;48.196;10.924;2023-05-01T12:06:43;16.30;37.70
8422;DHT22;4248;48.196;10.924;2023-05-01T12:09:26;16.30;37.40
8422;DHT22;4248;48.196;10.924;2023-05-01T12:11:52;16.30;37.40
8422;DHT22;4248;48.196;10.924;2023-05-01T12:14:19;16.40;37.30
8422;DHT22;4248;48.196;10.924;2023-05-01T12:16:46;16.30;37.40
8422;DHT22;4248;48.196;10.924;2023-05-01T12:19:13;16.30;37.30
8422;DHT22;4248;48.196;10.924;2023-05-01T12:21:39;16.10;37.40
8422;DHT22;4248;48.196;10.924;2023-05-01T12:24:09;16.10;37.60
8422;DHT22;4248;48.196;10.924;2023-05-01T12:26:35;16.20;37.50
8422;DHT22;4248;48.196;10.924;2023-05-01T12:29:03;16.10;37.50
8422;DHT22;4248;48.196;10.924;2023-05-01T12:31:29;16.00;37.90
8422;DHT22;4248;48.196;10.924;2023-05-01T12:34:06;16.10;37.70
8422;DHT22;4248;48.196;10.924;2023-05-01T12:36:36;16.40;37.20
8422;DHT22;4248;48.196;10.924;2023-05-01T12:39:03;16.60;37.20
8422;DHT22;4248;48.196;10.924;2023-05-01T12:41:44;16.80;36.70
8422;DHT22;4248;48.196;10.924;2023-05-01T12:44:25;16.90;36.50
8422;DHT22;4248;48.196;10.924;2023-05-01T12:47:03;17.10;36.00
8422;DHT22;4248;48.196;10.924;2023-05-01T12:49:30;17.20;35.70
8422;DHT22;4248;48.196;10.924;2023-05-01T12:51:58;17.10;35.80
8422;DHT22;4248;48.196;10.924;2023-05-01T12:54:34;17.10;35.80
8422;DHT22;4248;48.196;10.924;2023-05-01T12:59:31;17.10;35.90
8422;DHT22;4248;48.196;10.924;2023-05-01T13:02:01;17.30;35.50
8422;DHT22;4248;48.196;10.924;2023-05-01T13:04:27;17.60;34.60
8422;DHT22;4248;48.196;10.924;2023-05-01T13:06:53;17.70;33.90
8422;DHT22;4248;48.196;10.924;2023-05-01T13:09:23;17.80;34.20
8422;DHT22;4248;48.196;10.924;2023-05-01T13:12:00;17.80;34.10
8422;DHT22;4248;48.196;10.924;2023-05-01T13:14:38;17.60;34.30
8422;DHT22;4248;48.196;10.924;2023-05-01T13:17:08;17.60;34.40
8422;DHT22;4248;48.196;10.924;2023-05-01T13:19:34;17.60;34.10
8422;DHT22;4248;48.196;10.924;2023-05-01T13:22:00;17.50;34.20
8422;DHT22;4248;48.196;10.924;2023-05-01T13:24:40;17.50;34.50
8422;DHT22;4248;48.196;10.924;2023-05-01T13:27:09;17.50;34.00
8422;DHT22;4248;48.196;10.924;2023-05-01T13:29:35;17.60;33.70
8422;DHT22;4248;48.196;10.924;2023-05-01T13:32:05;17.70;33.60
8422;DHT22;4248;48.196;10.924;2023-05-01T13:34:34;17.70;33.00
8422;DHT22;4248;48.196;10.924;2023-05-01T13:37:01;17.80;32.70
8422;DHT22;4248;48.196;10.924;2023-05-01T13:39:27;17.80;32.70
8422;DHT22;4248;48.196;10.924;2023-05-01T13:41:53;17.80;32.70
8422;DHT22;4248;48.196;10.924;2023-05-01T13:44:20;17.90;32.20
8422;DHT22;4248;48.196;10.924;2023-05-01T13:46:46;17.90;32.20
8422;DHT22;4248;48.196;10.924;2023-05-01T13:49:13;17.90;32.10
8422;DHT22;4248;48.196;10.924;2023-05-01T13:51:40;17.80;32.00
8422;DHT22;4248;48.196;10.924;2023-05-01T13:54:11;17.90;32.20
8422;DHT22;4248;48.196;10.924;2023-05-01T13:56:38;17.90;32.20
8422;DHT22;4248;48.196;10.924;2023-05-01T13:59:05;17.90;32.10
8422;DHT22;4248;48.196;10.924;2023-05-01T14:01:38;17.90;32.10
8422;DHT22;4248;48.196;10.924;2023-05-01T14:04:07;18.00;32.20
8422;DHT22;4248;48.196;10.924;2023-05-01T14:06:35;18.10;32.30
8422;DHT22;4248;48.196;10.924;2023-05-01T14:09:05;18.00;32.20
8422;DHT22;4248;48.196;10.924;2023-05-01T14:11:34;18.10;32.30
8422;DHT22;4248;48.196;10.924;2023-05-01T14:14:05;18.20;32.60
8422;DHT22;4248;48.196;10.924;2023-05-01T14:16:31;18.30;32.50
8422;DHT22;4248;48.196;10.924;2023-05-01T14:18:57;18.10;32.30
8422;DHT22;4248;48.196;10.924;2023-05-01T14:21:24;18.10;32.30
8422;DHT22;4248;48.196;10.924;2023-05-01T14:23:52;18.10;32.30
8422;DHT22;4248;48.196;10.924;2023-05-01T14:26:19;18.10;32.30
8422;DHT22;4248;48.196;10.924;2023-05-01T14:28:46;18.00;32.20
8422;DHT22;4248;48.196;10.924;2023-05-01T14:31:32;17.90;32.20
8422;DHT22;4248;48.196;10.924;2023-05-01T14:34:03;17.90;32.10
8422;DHT22;4248;48.196;10.924;2023-05-01T14:36:29;18.00;32.20
8422;DHT22;4248;48.196;10.924;2023-05-01T14:38:57;18.10;32.30
8422;DHT22;4248;48.196;10.924;2023-05-01T14:41:22;18.20;32.50
8422;DHT22;4248;48.196;10.924;2023-05-01T14:43:49;18.10;32.30
8422;DHT22;4248;48.196;10.924;2023-05-01T14:46:30;18.20;32.40
8422;DHT22;4248;48.196;10.924;2023-05-01T14:48:56;18.10;32.30
8422;DHT22;4248;48.196;10.924;2023-05-01T14:51:22;18.10;32.30
8422;DHT22;4248;48.196;10.924;2023-05-01T14:53:48;18.10;32.30
8422;DHT22;4248;48.196;10.924;2023-05-01T14:56:13;18.00;32.20
8422;DHT22;4248;48.196;10.924;2023-05-01T14:58:40;18.00;32.30
8422;DHT22;4248;48.196;10.924;2023-05-01T15:01:06;18.00;32.20
8422;DHT22;4248;48.196;10.924;2023-05-01T15:03:33;17.90;33.30
8422;DHT22;4248;48.196;10.924;2023-05-01T15:06:05;18.00;32.30
8422;DHT22;4248;48.196;10.924;2023-05-01T15:08:30;18.00;32.20
8422;DHT22;4248;48.196;10.924;2023-05-01T15:10:57;17.90;32.10
8422;DHT22;4248;48.196;10.924;2023-05-01T15:13:23;17.90;32.10
8422;DHT22;4248;48.196;10.924;2023-05-01T15:15:48;17.90;32.10
8422;DHT22;4248;48.196;10.924;2023-05-01T15:18:14;17.70;32.20
8422;DHT22;4248;48.196;10.924;2023-05-01T15:20:40;17.60;32.50
8422;DHT22;4248;48.196;10.924;2023-05-01T15:23:05;17.50;33.10
8422;DHT22;4248;48.196;10.924;2023-05-01T15:25:31;17.50;33.40
8422;DHT22;4248;48.196;10.924;2023-05-01T15:27:56;17.30;33.80
8422;DHT22;4248;48.196;10.924;2023-05-01T15:30:22;17.10;34.30
8422;DHT22;4248;48.196;10.924;2023-05-01T15:32:48;16.90;35.20
8422;DHT22;4248;48.196;10.924;2023-05-01T15:35:13;16.80;35.80
8422;DHT22;4248;48.196;10.924;2023-05-01T15:37:39;16.70;36.20
8422;DHT22;4248;48.196;10.924;2023-05-01T15:40:05;16.60;36.80
8422;DHT22;4248;48.196;10.924;2023-05-01T15:42:31;16.40;37.40
8422;DHT22;4248;48.196;10.924;2023-05-01T15:44:57;16.30;38.10
8422;DHT22;4248;48.196;10.924;2023-05-01T15:47:22;16.10;38.40
8422;DHT22;4248;48.196;10.924;2023-05-01T15:49:48;16.00;38.60
8422;DHT22;4248;48.196;10.924;2023-05-01T15:52:14;16.00;38.90
8422;DHT22;4248;48.196;10.924;2023-05-01T15:54:39;15.80;39.10
8422;DHT22;4248;48.196;10.924;2023-05-01T15:57:06;15.80;39.30
8422;DHT22;4248;48.196;10.924;2023-05-01T15:59:32;15.70;39.70
8422;DHT22;4248;48.196;10.924;2023-05-01T16:01:58;15.60;40.00
8422;DHT22;4248;48.196;10.924;2023-05-01T16:04:24;15.50;40.50
8422;DHT22;4248;48.196;10.924;2023-05-01T16:06:49;15.40;40.70
8422;DHT22;4248;48.196;10.924;2023-05-01T16:09:15;15.30;41.10
8422;DHT22;4248;48.196;10.924;2023-05-01T16:11:41;15.20;41.60
8422;DHT22;4248;48.196;10.924;2023-05-01T16:14:08;15.10;41.80
8422;DHT22;4248;48.196;10.924;2023-05-01T16:16:34;15.00;42.40
8422;DHT22;4248;48.196;10.924;2023-05-01T16:19:00;14.90;42.90
8422;DHT22;4248;48.196;10.924;2023-05-01T16:21:26;14.80;42.80
8422;DHT22;4248;48.196;10.924;2023-05-01T16:23:54;14.80;42.80
8422;DHT22;4248;48.196;10.924;2023-05-01T16:26:24;14.80;42.90